シドニー国際空港の過去48時間の天気

シドニー国際空港 (Sydney Airport)

現在時刻: 12/1 07:01 AEDT (11/30 20:01 UTC) 以下の時間は現地時間です。

過去48時間のMETAR気象情報
時間 風向 風速(m/s) 視程 気温(℃) 湿度(%) 気圧(hPa) 天気現象
1 06:30 北北東 2 10km以上 22 78 1013
1 06:00 北東 3 10km以上 21 78 1013
1 05:30 北北東 3 10km以上 21 78 1013
1 05:00 北北東 4 10km以上 21 78 1013
1 04:30 北北東 5 10km以上 21 73 1013
1 04:00 北北東 5 10km以上 21 69 1014
1 03:30 北北東 5 10km以上 21 69 1014
1 03:00 北北東 5 10km以上 21 69 1014
1 02:30 北北東 5 10km以上 21 69 1015
1 02:00 北北東 5 10km以上 21 64 1015
1 01:30 北北東 5 10km以上 21 64 1016
1 01:00 北北東 6 10km以上 21 64 1016
1 00:30 北北東 4 10km以上 21 64 1016
1 00:00 北北東 5 10km以上 21 64 1016
30 23:30 北北東 4 10km以上 21 60 1017
30 23:00 北北東 4 10km以上 21 60 1017
30 22:30 北北東 5 10km以上 21 64 1017
30 22:00 北東 5 10km以上 21 64 1017
30 21:30 北東 6 10km以上 21 64 1016
30 21:00 北東 7 10km以上 21 64 1016
30 20:30 北東 7 10km以上 21 64 1016
30 20:00 北東 7 10km以上 21 60 1016
30 19:30 東北東 8 10km以上 21 64 1016
30 19:00 北東 7 10km以上 21 64 1016
30 18:30 東北東 8 10km以上 21 60 1015
30 18:00 北東 8 10km以上 22 60 1015
30 17:30 東北東 8 10km以上 22 57 1015
30 17:00 東北東 7 10km以上 22 60 1015
30 16:30 東北東 7 10km以上 23 57 1015 周辺でしゅう雨
30 16:00 北東 8 10km以上 22 57 1015
30 15:30 東北東 7 10km以上 22 60 1016
30 15:00 7 10km以上 23 57 1016 周辺でしゅう雨
30 14:30 南南東 7 10km以上 23 61 1016
30 14:00 東南東 7 10km以上 22 60 1016
30 13:30 南南東 6 10km以上 22 60 1017
30 13:00 南東 6 10km以上 22 60 1017 周辺でしゅう雨
30 12:30 南東 5 10km以上 22 60 1017
30 12:00 南南東 5 10km以上 22 65 1017
30 11:30 南南東 5 10km以上 22 60 1017
30 11:00 南東 5 10km以上 21 64 1018
30 10:30 南南東 5 10km以上 21 69 1018
30 10:00 南南東 4 10km以上 21 64 1018
30 09:30 南南東 5 10km以上 21 64 1018
30 09:00 南南東 5 10km以上 21 60 1018
30 08:30 南南東 5 10km以上 20 64 1018
30 08:00 南南東 5 10km以上 20 64 1017
30 07:30 南南東 6 10km以上 20 64 1017
30 07:00 南南東 6 10km以上 19 68 1017
30 06:30 南南東 6 10km以上 19 64 1016
YSSY 301930Z 02004KT 9999 FEW018 SCT028 22/18 Q1013
YSSY 301900Z 04006KT 9999 FEW018 SCT028 21/17 Q1013
YSSY 301830Z 02006KT 9999 FEW017 SCT028 21/17 Q1013
YSSY 301800Z 02008KT 9999 FEW017 BKN045 21/17 Q1013
YSSY 301730Z 03009KT 9999 FEW020 BKN045 21/16 Q1013
YSSY 301700Z 03010KT 9999 FEW028 BKN045 21/15 Q1014
YSSY 301630Z 02009KT 9999 FEW030 BKN048 21/15 Q1014
YSSY 301600Z 03010KT 9999 FEW030 BKN048 21/15 Q1014
YSSY 301530Z 02009KT 9999 FEW030 BKN050 21/15 Q1015
YSSY 301500Z 02010KT 9999 FEW035 BKN050 21/14 Q1015
YSSY 301430Z 02009KT 9999 FEW035 BKN050 21/14 Q1016
YSSY 301400Z 02011KT 9999 FEW035 BKN050 21/14 Q1016
YSSY 301330Z 03008KT 9999 FEW035 BKN052 21/14 Q1016
YSSY 301300Z 03009KT 9999 FEW030 BKN052 21/14 Q1016
YSSY 301230Z 03008KT 9999 FEW030 BKN052 21/13 Q1017
YSSY 301200Z 03008KT 9999 FEW030 BKN052 21/13 Q1017
YSSY 301130Z 03010KT 9999 FEW030 BKN050 21/14 Q1017
YSSY 301100Z 04010KT 9999 SCT028 BKN050 21/14 Q1017
YSSY 301030Z 04012KT 9999 FEW028 SCT035 21/14 Q1016
YSSY 301000Z 05013KT 9999 FEW028 SCT038 BKN050 21/14 Q1016
YSSY 300930Z 05013KT 9999 FEW028 SCT038 BKN050 21/14 Q1016
YSSY 300900Z 05013KT 9999 FEW030 BKN038 21/13 Q1016
YSSY 300830Z 06015KT 9999 SCT028 BKN038 21/14 Q1016
YSSY 300800Z 05014KT 9999 SCT030 BKN055 21/14 Q1016
YSSY 300730Z 06016KT 9999 SCT030 BKN055 21/13 Q1015
YSSY 300700Z 04015KT 9999 BKN030 SCT059 22/14 Q1015
YSSY 300630Z 07015KT 9999 BKN030 SCT059 22/13 Q1015
YSSY 300600Z 06013KT 9999 SCT028 BKN057 22/14 Q1015
YSSY 300530Z 06014KT 9999 VCSH FEW030 BKN057 23/14 Q1015
YSSY 300500Z 04016KT 9999 SCT030 SCT043 BKN058 22/13 Q1015
YSSY 300430Z 07014KT 9999 SCT027 SCT045 22/14 Q1016
YSSY 300400Z 08014KT 9999 VCSH SCT027 BKN060 23/14 Q1016
YSSY 300330Z 16014KT 9999 SCT030 SCT060 23/15 Q1016
YSSY 300300Z 12013KT 9999 FEW030 BKN055 22/14 Q1016
YSSY 300230Z 15011KT 9999 SCT030 SCT050 22/14 Q1017
YSSY 300200Z 14011KT 9999 VCSH SCT030 SCT053 22/14 Q1017
YSSY 300130Z 13010KT 9999 SCT027 SCT055 22/14 Q1017
YSSY 300100Z 15010KT 9999 SCT027 22/15 Q1017
YSSY 300030Z 15009KT 9999 FEW030 SCT063 22/14 Q1017
YSSY 300000Z 14009KT 9999 FEW027 BKN063 21/14 Q1018
YSSY 292330Z 16009KT 9999 FEW027 BKN063 21/15 Q1018
YSSY 292300Z 15008KT 9999 FEW027 BKN063 21/14 Q1018
YSSY 292230Z 15009KT 9999 FEW025 BKN063 21/14 Q1018
YSSY 292200Z 15009KT 9999 FEW030 BKN060 21/13 Q1018
YSSY 292130Z 15010KT 9999 SCT030 BKN060 20/13 Q1018
YSSY 292100Z 15009KT 9999 FEW035 BKN059 20/13 Q1017
YSSY 292030Z 15011KT 9999 SCT035 BKN057 20/13 Q1017
YSSY 292000Z 16011KT 9999 FEW030 BKN057 19/13 Q1017
YSSY 291930Z 15011KT 9999 FEW030 BKN057 19/12 Q1016